sensor_id;sensor_type;location;lat;lon;timestamp;pressure;altitude;pressure_sealevel;temperature;humidity
3796;BME280;1913;50.660;7.834;2023-02-02T00:01:21;97509.88;;;5.31;100.00
3796;BME280;1913;50.660;7.834;2023-02-02T00:03:48;97504.81;;;5.29;100.00
3796;BME280;1913;50.660;7.834;2023-02-02T00:06:16;97510.19;;;5.36;100.00
3796;BME280;1913;50.660;7.834;2023-02-02T00:08:41;97506.78;;;5.35;100.00
3796;BME280;1913;50.660;7.834;2023-02-02T00:11:07;97502.06;;;5.39;100.00
3796;BME280;1913;50.660;7.834;2023-02-02T00:13:32;97511.19;;;5.35;100.00
3796;BME280;1913;50.660;7.834;2023-02-02T00:15:58;97505.97;;;5.35;100.00
3796;BME280;1913;50.660;7.834;2023-02-02T00:18:23;97502.38;;;5.36;100.00
3796;BME280;1913;50.660;7.834;2023-02-02T00:20:48;97512.97;;;5.34;100.00
3796;BME280;1913;50.660;7.834;2023-02-02T00:23:15;97510.84;;;5.29;100.00
3796;BME280;1913;50.660;7.834;2023-02-02T00:25:42;97519.50;;;5.30;100.00
3796;BME280;1913;50.660;7.834;2023-02-02T00:28:07;97508.72;;;5.25;100.00
3796;BME280;1913;50.660;7.834;2023-02-02T00:30:36;97516.41;;;5.35;100.00
3796;BME280;1913;50.660;7.834;2023-02-02T00:33:01;97525.34;;;5.32;100.00
3796;BME280;1913;50.660;7.834;2023-02-02T00:35:27;97526.81;;;5.26;100.00
3796;BME280;1913;50.660;7.834;2023-02-02T00:37:52;97519.50;;;5.30;100.00
3796;BME280;1913;50.660;7.834;2023-02-02T00:40:17;97517.69;;;5.31;100.00
3796;BME280;1913;50.660;7.834;2023-02-02T00:42:43;97524.03;;;5.28;100.00
3796;BME280;1913;50.660;7.834;2023-02-02T00:45:13;97514.09;;;5.23;100.00
3796;BME280;1913;50.660;7.834;2023-02-02T00:47:47;97518.81;;;5.28;100.00
3796;BME280;1913;50.660;7.834;2023-02-02T00:50:18;97513.28;;;5.23;100.00
3796;BME280;1913;50.660;7.834;2023-02-02T00:52:45;97521.25;;;5.21;100.00
3796;BME280;1913;50.660;7.834;2023-02-02T00:55:11;97519.00;;;5.26;100.00
3796;BME280;1913;50.660;7.834;2023-02-02T00:57:37;97524.34;;;5.25;100.00
3796;BME280;1913;50.660;7.834;2023-02-02T01:00:05;97515.41;;;5.27;100.00
3796;BME280;1913;50.660;7.834;2023-02-02T01:02:32;97521.59;;;5.26;100.00
3796;BME280;1913;50.660;7.834;2023-02-02T01:04:58;97516.84;;;5.22;100.00
3796;BME280;1913;50.660;7.834;2023-02-02T01:07:23;97519.16;;;5.33;100.00
3796;BME280;1913;50.660;7.834;2023-02-02T01:09:49;97515.38;;;5.19;100.00
3796;BME280;1913;50.660;7.834;2023-02-02T01:12:14;97516.22;;;5.20;100.00
3796;BME280;1913;50.660;7.834;2023-02-02T01:14:39;97522.22;;;5.20;100.00
3796;BME280;1913;50.660;7.834;2023-02-02T01:17:05;97522.22;;;5.20;100.00
3796;BME280;1913;50.660;7.834;2023-02-02T01:19:30;97518.31;;;5.16;100.00
3796;BME280;1913;50.660;7.834;2023-02-02T01:21:56;97516.53;;;5.17;100.00
3796;BME280;1913;50.660;7.834;2023-02-02T01:24:21;97514.25;;;5.22;100.00
3796;BME280;1913;50.660;7.834;2023-02-02T01:26:47;97508.03;;;5.15;100.00
3796;BME280;1913;50.660;7.834;2023-02-02T01:29:12;97521.56;;;5.18;100.00
3796;BME280;1913;50.660;7.834;2023-02-02T01:31:38;97517.97;;;5.19;100.00
3796;BME280;1913;50.660;7.834;2023-02-02T01:34:03;97514.41;;;5.20;100.00
3796;BME280;1913;50.660;7.834;2023-02-02T01:36:28;97512.78;;;5.19;100.00
3796;BME280;1913;50.660;7.834;2023-02-02T01:38:54;97520.09;;;5.16;100.00
3796;BME280;1913;50.660;7.834;2023-02-02T01:41:22;97509.34;;;5.19;100.00
3796;BME280;1913;50.660;7.834;2023-02-02T01:43:56;97516.53;;;5.25;100.00
3796;BME280;1913;50.660;7.834;2023-02-02T01:46:25;97505.28;;;5.16;100.00
3796;BME280;1913;50.660;7.834;2023-02-02T01:48:58;97504.47;;;5.16;100.00
3796;BME280;1913;50.660;7.834;2023-02-02T01:51:39;97503.50;;;5.17;100.00
3796;BME280;1913;50.660;7.834;2023-02-02T01:54:08;97517.66;;;5.14;100.00
3796;BME280;1913;50.660;7.834;2023-02-02T01:56:40;97512.25;;;5.08;100.00
3796;BME280;1913;50.660;7.834;2023-02-02T01:59:08;97516.34;;;5.02;100.00
3796;BME280;1913;50.660;7.834;2023-02-02T02:01:34;97520.06;;;4.99;100.00
3796;BME280;1913;50.660;7.834;2023-02-02T02:04:00;97519.41;;;4.97;100.00
3796;BME280;1913;50.660;7.834;2023-02-02T02:06:25;97518.09;;;4.93;100.00
3796;BME280;1913;50.660;7.834;2023-02-02T02:08:56;97513.38;;;4.97;100.00
3796;BME280;1913;50.660;7.834;2023-02-02T02:11:23;97515.66;;;4.92;100.00
3796;BME280;1913;50.660;7.834;2023-02-02T02:13:50;97507.19;;;4.90;100.00
3796;BME280;1913;50.660;7.834;2023-02-02T02:19:42;97518.22;;;4.84;100.00
3796;BME280;1913;50.660;7.834;2023-02-02T02:39:33;97526.69;;;4.77;100.00
3796;BME280;1913;50.660;7.834;2023-02-02T02:42:07;97520.50;;;4.78;100.00
3796;BME280;1913;50.660;7.834;2023-02-02T02:44:35;97526.31;;;4.72;100.00
3796;BME280;1913;50.660;7.834;2023-02-02T02:47:01;97524.72;;;4.79;100.00
3796;BME280;1913;50.660;7.834;2023-02-02T02:49:26;97530.78;;;4.88;100.00
3796;BME280;1913;50.660;7.834;2023-02-02T02:51:53;97525.22;;;4.83;100.00
3796;BME280;1913;50.660;7.834;2023-02-02T02:54:28;97528.81;;;4.82;100.00
3796;BME280;1913;50.660;7.834;2023-02-02T02:57:16;97527.81;;;4.83;100.00
3796;BME280;1913;50.660;7.834;2023-02-02T03:05:39;97530.72;;;4.80;100.00
3796;BME280;1913;50.660;7.834;2023-02-02T03:08:23;97535.94;;;4.80;100.00
3796;BME280;1913;50.660;7.834;2023-02-02T03:10:51;97540.69;;;4.85;100.00
3796;BME280;1913;50.660;7.834;2023-02-02T03:13:17;97534.50;;;4.77;100.00
3796;BME280;1913;50.660;7.834;2023-02-02T03:15:43;97524.53;;;4.73;100.00
3796;BME280;1913;50.660;7.834;2023-02-02T03:18:14;97525.53;;;4.80;100.00
3796;BME280;1913;50.660;7.834;2023-02-02T03:20:42;97532.84;;;4.76;100.00
3796;BME280;1913;50.660;7.834;2023-02-02T03:23:09;97515.75;;;4.74;100.00
3796;BME280;1913;50.660;7.834;2023-02-02T03:25:34;97525.88;;;4.85;100.00
3796;BME280;1913;50.660;7.834;2023-02-02T03:28:00;97525.69;;;4.78;100.00
3796;BME280;1913;50.660;7.834;2023-02-02T03:30:26;97527.00;;;4.83;100.00
3796;BME280;1913;50.660;7.834;2023-02-02T03:32:51;97521.47;;;4.77;100.00
3796;BME280;1913;50.660;7.834;2023-02-02T03:35:17;97515.94;;;4.80;100.00
3796;BME280;1913;50.660;7.834;2023-02-02T03:37:44;97520.00;;;4.75;100.00
3796;BME280;1913;50.660;7.834;2023-02-02T03:40:10;97529.59;;;4.74;100.00
3796;BME280;1913;50.660;7.834;2023-02-02T03:42:35;97515.09;;;4.80;100.00
3796;BME280;1913;50.660;7.834;2023-02-02T03:45:01;97526.88;;;4.84;100.00
3796;BME280;1913;50.660;7.834;2023-02-02T03:47:28;97532.88;;;4.85;100.00
3796;BME280;1913;50.660;7.834;2023-02-02T03:49:54;97517.88;;;4.78;100.00
3796;BME280;1913;50.660;7.834;2023-02-02T03:52:19;97528.31;;;4.78;100.00
3796;BME280;1913;50.660;7.834;2023-02-02T03:54:45;97529.28;;;4.77;100.00
3796;BME280;1913;50.660;7.834;2023-02-02T03:57:10;97530.09;;;4.78;100.00
3796;BME280;1913;50.660;7.834;2023-02-02T03:59:35;97520.81;;;4.75;100.00
3796;BME280;1913;50.660;7.834;2023-02-02T04:02:01;97534.81;;;4.83;100.00
3796;BME280;1913;50.660;7.834;2023-02-02T04:04:26;97535.13;;;4.79;100.00
3796;BME280;1913;50.660;7.834;2023-02-02T04:06:52;97542.31;;;4.77;100.00
3796;BME280;1913;50.660;7.834;2023-02-02T04:09:17;97524.22;;;4.76;100.00
3796;BME280;1913;50.660;7.834;2023-02-02T04:11:43;97539.22;;;4.82;100.00
3796;BME280;1913;50.660;7.834;2023-02-02T04:14:09;97542.94;;;4.79;100.00
3796;BME280;1913;50.660;7.834;2023-02-02T04:16:34;97546.34;;;4.80;100.00
3796;BME280;1913;50.660;7.834;2023-02-02T04:19:02;97543.31;;;4.85;100.00
3796;BME280;1913;50.660;7.834;2023-02-02T04:21:28;97548.16;;;4.79;100.00
3796;BME280;1913;50.660;7.834;2023-02-02T04:23:55;97542.31;;;4.77;100.00
3796;BME280;1913;50.660;7.834;2023-02-02T04:26:21;97553.66;;;4.76;100.00
3796;BME280;1913;50.660;7.834;2023-02-02T04:28:47;97558.41;;;4.81;100.00
3796;BME280;1913;50.660;7.834;2023-02-02T04:31:13;97557.78;;;4.87;100.00
3796;BME280;1913;50.660;7.834;2023-02-02T04:33:38;97556.13;;;4.78;100.00
3796;BME280;1913;50.660;7.834;2023-02-02T04:36:04;97550.91;;;4.78;100.00
3796;BME280;1913;50.660;7.834;2023-02-02T04:38:29;97562.16;;;4.78;100.00
3796;BME280;1913;50.660;7.834;2023-02-02T04:40:55;97556.78;;;4.80;100.00
3796;BME280;1913;50.660;7.834;2023-02-02T04:43:20;97562.47;;;4.75;100.00
3796;BME280;1913;50.660;7.834;2023-02-02T04:45:46;97562.47;;;4.75;100.00
3796;BME280;1913;50.660;7.834;2023-02-02T04:48:11;97549.94;;;4.79;100.00
3796;BME280;1913;50.660;7.834;2023-02-02T04:50:37;97560.53;;;4.77;100.00
3796;BME280;1913;50.660;7.834;2023-02-02T04:53:03;97562.66;;;4.82;100.00
3796;BME280;1913;50.660;7.834;2023-02-02T04:55:28;97563.97;;;4.86;100.00
3796;BME280;1913;50.660;7.834;2023-02-02T04:57:54;97563.63;;;4.81;100.00
3796;BME280;1913;50.660;7.834;2023-02-02T05:00:19;97562.16;;;4.78;100.00
3796;BME280;1913;50.660;7.834;2023-02-02T05:02:45;97557.91;;;4.77;100.00
3796;BME280;1913;50.660;7.834;2023-02-02T05:05:12;97568.34;;;4.77;100.00
3796;BME280;1913;50.660;7.834;2023-02-02T05:07:38;97570.28;;;4.75;100.00
3796;BME280;1913;50.660;7.834;2023-02-02T05:10:06;97565.38;;;4.72;100.00
3796;BME280;1913;50.660;7.834;2023-02-02T05:12:31;97571.59;;;4.79;100.00
3796;BME280;1913;50.660;7.834;2023-02-02T05:14:57;97579.75;;;4.85;100.00
3796;BME280;1913;50.660;7.834;2023-02-02T05:17:25;97583.28;;;4.75;100.00
3796;BME280;1913;50.660;7.834;2023-02-02T05:19:51;97574.19;;;4.79;100.00
3796;BME280;1913;50.660;7.834;2023-02-02T05:22:16;97574.50;;;4.76;100.00
3796;BME280;1913;50.660;7.834;2023-02-02T05:24:42;97585.06;;;4.75;100.00
3796;BME280;1913;50.660;7.834;2023-02-02T05:27:07;97588.69;;;4.82;100.00
3796;BME280;1913;50.660;7.834;2023-02-02T05:29:32;97585.75;;;4.77;100.00
3796;BME280;1913;50.660;7.834;2023-02-02T05:31:58;97583.31;;;4.84;100.00
3796;BME280;1913;50.660;7.834;2023-02-02T05:34:23;97588.84;;;4.80;100.00
3796;BME280;1913;50.660;7.834;2023-02-02T05:36:49;97597.31;;;4.83;100.00
3796;BME280;1913;50.660;7.834;2023-02-02T05:39:17;97594.06;;;4.80;100.00
3796;BME280;1913;50.660;7.834;2023-02-02T05:41:43;97595.22;;;4.86;100.00
3796;BME280;1913;50.660;7.834;2023-02-02T05:44:12;97596.81;;;4.79;100.00
3796;BME280;1913;50.660;7.834;2023-02-02T05:46:38;97573.22;;;4.80;100.00
3796;BME280;1913;50.660;7.834;2023-02-02T05:49:03;97589.81;;;4.79;100.00
3796;BME280;1913;50.660;7.834;2023-02-02T05:51:49;97595.00;;;4.79;100.00
3796;BME280;1913;50.660;7.834;2023-02-02T05:54:16;97600.22;;;4.79;100.00
3796;BME280;1913;50.660;7.834;2023-02-02T05:56:49;97589.66;;;4.81;100.00
3796;BME280;1913;50.660;7.834;2023-02-02T05:59:16;97592.41;;;4.79;100.00
3796;BME280;1913;50.660;7.834;2023-02-02T06:01:43;97585.78;;;4.85;100.00
3796;BME280;1913;50.660;7.834;2023-02-02T06:04:08;97597.19;;;4.84;100.00
3796;BME280;1913;50.660;7.834;2023-02-02T06:06:34;97592.28;;;4.81;100.00
3796;BME280;1913;50.660;7.834;2023-02-02T06:09:00;97588.84;;;4.80;100.00
3796;BME280;1913;50.660;7.834;2023-02-02T06:11:26;97583.31;;;4.84;100.00
3796;BME280;1913;50.660;7.834;2023-02-02T06:13:51;97589.38;;;4.92;100.00
3796;BME280;1913;50.660;7.834;2023-02-02T06:16:17;97591.97;;;4.84;100.00
3796;BME280;1913;50.660;7.834;2023-02-02T06:18:42;97574.25;;;4.88;100.00
3796;BME280;1913;50.660;7.834;2023-02-02T06:21:09;97588.41;;;4.93;100.00
3796;BME280;1913;50.660;7.834;2023-02-02T06:23:35;97583.50;;;4.90;100.00
3796;BME280;1913;50.660;7.834;2023-02-02T06:26:00;97598.31;;;4.90;100.00
3796;BME280;1913;50.660;7.834;2023-02-02T06:28:28;97603.69;;;4.88;100.00
3796;BME280;1913;50.660;7.834;2023-02-02T06:30:54;97602.72;;;4.89;100.00
3796;BME280;1913;50.660;7.834;2023-02-02T06:33:19;97597.00;;;4.86;100.00
3796;BME280;1913;50.660;7.834;2023-02-02T06:35:45;97608.09;;;4.88;100.00
3796;BME280;1913;50.660;7.834;2023-02-02T06:38:10;97606.59;;;4.85;100.00
3796;BME280;1913;50.660;7.834;2023-02-02T06:40:35;97609.41;;;4.92;100.00
3796;BME280;1913;50.660;7.834;2023-02-02T06:43:01;97600.91;;;4.82;100.00
3796;BME280;1913;50.660;7.834;2023-02-02T06:45:29;97610.63;;;4.79;100.00
3796;BME280;1913;50.660;7.834;2023-02-02T06:47:59;97614.72;;;4.82;100.00
3796;BME280;1913;50.660;7.834;2023-02-02T06:50:32;97617.03;;;4.85;100.00
3796;BME280;1913;50.660;7.834;2023-02-02T06:52:57;97612.31;;;4.89;100.00
3796;BME280;1913;50.660;7.834;2023-02-02T06:55:23;97612.97;;;4.91;100.00
3796;BME280;1913;50.660;7.834;2023-02-02T06:57:55;97616.72;;;4.88;100.00
3796;BME280;1913;50.660;7.834;2023-02-02T07:00:20;97622.06;;;4.87;100.00
3796;BME280;1913;50.660;7.834;2023-02-02T07:02:46;97621.94;;;4.88;100.00
3796;BME280;1913;50.660;7.834;2023-02-02T07:05:11;97611.81;;;4.85;100.00
3796;BME280;1913;50.660;7.834;2023-02-02T07:07:36;97624.88;;;4.93;100.00
3796;BME280;1913;50.660;7.834;2023-02-02T07:10:02;97613.94;;;4.90;100.00
3796;BME280;1913;50.660;7.834;2023-02-02T07:12:28;97625.47;;;4.87;100.00
3796;BME280;1913;50.660;7.834;2023-02-02T07:14:53;97624.38;;;4.90;100.00
3796;BME280;1913;50.660;7.834;2023-02-02T07:17:18;97615.53;;;4.83;100.00
3796;BME280;1913;50.660;7.834;2023-02-02T07:19:44;97622.88;;;4.87;100.00
3796;BME280;1913;50.660;7.834;2023-02-02T07:22:10;97627.44;;;4.85;100.00
3796;BME280;1913;50.660;7.834;2023-02-02T07:24:35;97624.66;;;4.87;100.00
3796;BME280;1913;50.660;7.834;2023-02-02T07:27:03;97618.50;;;4.88;100.00
3796;BME280;1913;50.660;7.834;2023-02-02T07:29:29;97628.72;;;4.81;100.00
3796;BME280;1913;50.660;7.834;2023-02-02T07:31:54;97629.56;;;4.90;100.00
3796;BME280;1913;50.660;7.834;2023-02-02T07:34:20;97629.44;;;4.91;100.00
3796;BME280;1913;50.660;7.834;2023-02-02T07:36:45;97623.38;;;4.91;100.00
3796;BME280;1913;50.660;7.834;2023-02-02T07:39:11;97644.72;;;4.94;100.00
3796;BME280;1913;50.660;7.834;2023-02-02T07:41:36;97636.41;;;4.91;100.00
3796;BME280;1913;50.660;7.834;2023-02-02T07:44:03;97641.94;;;4.88;100.00
3796;BME280;1913;50.660;7.834;2023-02-02T07:46:28;97650.41;;;4.90;100.00
3796;BME280;1913;50.660;7.834;2023-02-02T07:48:54;97639.78;;;4.83;100.00
3796;BME280;1913;50.660;7.834;2023-02-02T07:51:20;97653.63;;;4.84;100.00
3796;BME280;1913;50.660;7.834;2023-02-02T07:53:48;97656.09;;;4.85;100.00
3796;BME280;1913;50.660;7.834;2023-02-02T07:56:16;97659.00;;;4.82;100.00
3796;BME280;1913;50.660;7.834;2023-02-02T07:58:42;97645.16;;;4.82;100.00
3796;BME280;1913;50.660;7.834;2023-02-02T08:01:10;97655.91;;;4.87;100.00
3796;BME280;1913;50.660;7.834;2023-02-02T08:03:37;97667.16;;;4.87;100.00
3796;BME280;1913;50.660;7.834;2023-02-02T08:06:24;97657.25;;;4.91;100.00
3796;BME280;1913;50.660;7.834;2023-02-02T08:08:50;97657.09;;;4.92;100.00
3796;BME280;1913;50.660;7.834;2023-02-02T08:11:19;97654.50;;;4.92;100.00
3796;BME280;1913;50.660;7.834;2023-02-02T08:13:48;97666.41;;;4.95;100.00
3796;BME280;1913;50.660;7.834;2023-02-02T08:16:14;97656.78;;;4.95;100.00
3796;BME280;1913;50.660;7.834;2023-02-02T08:18:39;97652.69;;;4.93;100.00
3796;BME280;1913;50.660;7.834;2023-02-02T08:21:06;97655.31;;;4.93;100.00
3796;BME280;1913;50.660;7.834;2023-02-02T08:23:36;97656.44;;;4.90;100.00
3796;BME280;1913;50.660;7.834;2023-02-02T08:26:13;97656.28;;;4.92;100.00
3796;BME280;1913;50.660;7.834;2023-02-02T08:28:40;97672.25;;;4.97;100.00
3796;BME280;1913;50.660;7.834;2023-02-02T08:31:10;97669.00;;;4.95;100.00
3796;BME280;1913;50.660;7.834;2023-02-02T08:33:36;97672.13;;;4.98;100.00
3796;BME280;1913;50.660;7.834;2023-02-02T08:36:03;97673.56;;;5.01;100.00
3796;BME280;1913;50.660;7.834;2023-02-02T08:38:29;97676.47;;;4.98;100.00
3796;BME280;1913;50.660;7.834;2023-02-02T08:40:54;97668.53;;;4.99;100.00
3796;BME280;1913;50.660;7.834;2023-02-02T08:43:20;97671.16;;;5.08;100.00
3796;BME280;1913;50.660;7.834;2023-02-02T08:45:45;97676.53;;;5.06;100.00
3796;BME280;1913;50.660;7.834;2023-02-02T08:48:12;97677.84;;;5.02;100.00
3796;BME280;1913;50.660;7.834;2023-02-02T08:50:38;97679.59;;;5.01;100.00
3796;BME280;1913;50.660;7.834;2023-02-02T08:53:04;97682.41;;;5.08;100.00
3796;BME280;1913;50.660;7.834;2023-02-02T08:55:29;97691.00;;;5.00;100.00
3796;BME280;1913;50.660;7.834;2023-02-02T08:57:55;97680.06;;;4.97;100.00
3796;BME280;1913;50.660;7.834;2023-02-02T09:00:20;97680.75;;;4.99;100.00
3796;BME280;1913;50.660;7.834;2023-02-02T09:02:49;97693.97;;;5.06;100.00
3796;BME280;1913;50.660;7.834;2023-02-02T09:05:15;97690.00;;;5.01;100.00
3796;BME280;1913;50.660;7.834;2023-02-02T09:07:40;97700.13;;;5.04;100.00
3796;BME280;1913;50.660;7.834;2023-02-02T09:10:06;97700.44;;;5.01;100.00
3796;BME280;1913;50.660;7.834;2023-02-02T09:12:31;97704.72;;;5.11;100.00
3796;BME280;1913;50.660;7.834;2023-02-02T09:14:56;97701.44;;;5.09;100.00
3796;BME280;1913;50.660;7.834;2023-02-02T09:17:22;97694.13;;;5.12;100.00
3796;BME280;1913;50.660;7.834;2023-02-02T09:19:48;97704.72;;;5.11;100.00
3796;BME280;1913;50.660;7.834;2023-02-02T09:22:14;97707.88;;;5.22;100.00
3796;BME280;1913;50.660;7.834;2023-02-02T09:24:39;97708.00;;;5.13;100.00
3796;BME280;1913;50.660;7.834;2023-02-02T09:27:04;97706.53;;;5.10;100.00
3796;BME280;1913;50.660;7.834;2023-02-02T09:29:30;97713.22;;;5.13;100.00
3796;BME280;1913;50.660;7.834;2023-02-02T09:31:55;97723.94;;;5.10;100.00
3796;BME280;1913;50.660;7.834;2023-02-02T09:34:21;97722.44;;;5.07;100.00
3796;BME280;1913;50.660;7.834;2023-02-02T09:36:47;97727.69;;;5.15;100.00
3796;BME280;1913;50.660;7.834;2023-02-02T09:39:13;97738.13;;;5.15;100.00
3796;BME280;1913;50.660;7.834;2023-02-02T09:50:04;97744.28;;;5.06;100.00
3796;BME280;1913;50.660;7.834;2023-02-02T09:52:43;97758.16;;;5.15;100.00
3796;BME280;1913;50.660;7.834;2023-02-02T09:55:17;97769.91;;;5.19;100.00
3796;BME280;1913;50.660;7.834;2023-02-02T10:00:44;97767.16;;;5.20;100.00
3796;BME280;1913;50.660;7.834;2023-02-02T10:03:20;97772.81;;;5.16;100.00
3796;BME280;1913;50.660;7.834;2023-02-02T10:06:03;97768.09;;;5.19;100.00
3796;BME280;1913;50.660;7.834;2023-02-02T10:08:53;97760.75;;;5.15;100.00
3796;BME280;1913;50.660;7.834;2023-02-02T10:11:36;97772.66;;;5.17;100.00
3796;BME280;1913;50.660;7.834;2023-02-02T10:14:14;97756.88;;;5.19;100.00
3796;BME280;1913;50.660;7.834;2023-02-02T10:16:42;97775.06;;;5.11;100.00
3796;BME280;1913;50.660;7.834;2023-02-02T10:19:11;97775.41;;;5.16;100.00
3796;BME280;1913;50.660;7.834;2023-02-02T10:24:19;97774.28;;;5.18;100.00
3796;BME280;1913;50.660;7.834;2023-02-02T10:26:49;97774.16;;;5.20;100.00
3796;BME280;1913;50.660;7.834;2023-02-02T10:45:44;97781.97;;;5.20;100.00
3796;BME280;1913;50.660;7.834;2023-02-02T10:48:19;97784.63;;;5.28;100.00
3796;BME280;1913;50.660;7.834;2023-02-02T10:50:53;97774.50;;;5.25;100.00
3796;BME280;1913;50.660;7.834;2023-02-02T10:53:19;97775.69;;;5.31;100.00
3796;BME280;1913;50.660;7.834;2023-02-02T10:55:59;97796.06;;;5.35;100.00
3796;BME280;1913;50.660;7.834;2023-02-02T10:59:01;97795.84;;;5.28;100.00
3796;BME280;1913;50.660;7.834;2023-02-02T11:01:34;97793.25;;;5.28;100.00
3796;BME280;1913;50.660;7.834;2023-02-02T11:04:08;97797.81;;;5.26;100.00
3796;BME280;1913;50.660;7.834;2023-02-02T11:07:01;97781.09;;;5.37;100.00
3796;BME280;1913;50.660;7.834;2023-02-02T11:09:39;97791.88;;;5.42;100.00
3796;BME280;1913;50.660;7.834;2023-02-02T11:12:15;97800.16;;;5.38;100.00
3796;BME280;1913;50.660;7.834;2023-02-02T11:14:47;97804.22;;;5.40;100.00
3796;BME280;1913;50.660;7.834;2023-02-02T11:17:22;97799.19;;;5.39;100.00
3796;BME280;1913;50.660;7.834;2023-02-02T11:19:54;97797.56;;;5.38;100.00
3796;BME280;1913;50.660;7.834;2023-02-02T11:22:41;97787.25;;;5.36;100.00
3796;BME280;1913;50.660;7.834;2023-02-02T11:25:33;97789.06;;;5.36;100.00
3796;BME280;1913;50.660;7.834;2023-02-02T11:28:18;97793.94;;;5.31;100.00
3796;BME280;1913;50.660;7.834;2023-02-02T11:30:51;97808.41;;;5.33;100.00
3796;BME280;1913;50.660;7.834;2023-02-02T11:33:34;97793.56;;;5.25;100.00
3796;BME280;1913;50.660;7.834;2023-02-02T11:36:04;97795.03;;;5.28;100.00
3796;BME280;1913;50.660;7.834;2023-02-02T11:38:44;97802.56;;;5.31;100.00
3796;BME280;1913;50.660;7.834;2023-02-02T11:41:13;97784.34;;;5.39;100.00
3796;BME280;1913;50.660;7.834;2023-02-02T11:43:52;97792.78;;;5.33;100.00
3796;BME280;1913;50.660;7.834;2023-02-02T11:46:30;97794.56;;;5.33;100.00
3796;BME280;1913;50.660;7.834;2023-02-02T11:49:00;97790.34;;;5.32;100.00
3796;BME280;1913;50.660;7.834;2023-02-02T11:51:28;97799.66;;;5.34;100.00
3796;BME280;1913;50.660;7.834;2023-02-02T11:54:15;97792.16;;;5.39;100.00
3796;BME280;1913;50.660;7.834;2023-02-02T11:56:48;97792.16;;;5.39;100.00
3796;BME280;1913;50.660;7.834;2023-02-02T11:59:38;97797.38;;;5.39;100.00
3796;BME280;1913;50.660;7.834;2023-02-02T12:04:46;97781.09;;;5.37;100.00
3796;BME280;1913;50.660;7.834;2023-02-02T12:07:31;97797.75;;;5.44;100.00
3796;BME280;1913;50.660;7.834;2023-02-02T12:10:10;97790.56;;;5.46;100.00
3796;BME280;1913;50.660;7.834;2023-02-02T12:12:59;97801.69;;;5.48;100.00
3796;BME280;1913;50.660;7.834;2023-02-02T12:23:50;97798.41;;;5.46;100.00
3796;BME280;1913;50.660;7.834;2023-02-02T12:26:26;97803.09;;;5.43;100.00
3796;BME280;1913;50.660;7.834;2023-02-02T12:32:06;97801.50;;;5.50;100.00
3796;BME280;1913;50.660;7.834;2023-02-02T12:40:28;97794.00;;;5.47;100.00
3796;BME280;1913;50.660;7.834;2023-02-02T12:46:08;97800.69;;;5.49;100.00
3796;BME280;1913;50.660;7.834;2023-02-02T12:48:54;97805.59;;;5.52;100.00
3796;BME280;1913;50.660;7.834;2023-02-02T12:54:19;97800.22;;;5.54;100.00
3796;BME280;1913;50.660;7.834;2023-02-02T13:07:48;97811.34;;;5.64;100.00
3796;BME280;1913;50.660;7.834;2023-02-02T13:10:26;97816.47;;;5.74;100.00
3796;BME280;1913;50.660;7.834;2023-02-02T13:12:59;97818.56;;;5.70;100.00
3796;BME280;1913;50.660;7.834;2023-02-02T13:15:33;97820.38;;;5.70;100.00
3796;BME280;1913;50.660;7.834;2023-02-02T13:18:05;97824.13;;;5.75;100.00
3796;BME280;1913;50.660;7.834;2023-02-02T13:20:43;97829.53;;;5.82;100.00
3796;BME280;1913;50.660;7.834;2023-02-02T13:23:39;97840.16;;;5.89;100.00
3796;BME280;1913;50.660;7.834;2023-02-02T13:26:14;97841.78;;;5.90;100.00
3796;BME280;1913;50.660;7.834;2023-02-02T13:31:57;97838.13;;;5.74;100.00
3796;BME280;1913;50.660;7.834;2023-02-02T13:34:43;97840.91;;;5.73;100.00
3796;BME280;1913;50.660;7.834;2023-02-02T13:39:59;97833.53;;;5.68;100.00
3796;BME280;1913;50.660;7.834;2023-02-02T13:44:57;97823.63;;;5.72;100.00
3796;BME280;1913;50.660;7.834;2023-02-02T13:47:37;97841.56;;;5.75;100.00
3796;BME280;1913;50.660;7.834;2023-02-02T13:50:12;97837.22;;;5.84;100.00
3796;BME280;1913;50.660;7.834;2023-02-02T13:58:42;97842.44;;;5.84;100.00
3796;BME280;1913;50.660;7.834;2023-02-02T14:01:11;97844.84;;;5.77;100.00
3796;BME280;1913;50.660;7.834;2023-02-02T14:03:49;97837.56;;;5.89;100.00
3796;BME280;1913;50.660;7.834;2023-02-02T14:06:19;97839.34;;;5.88;100.00
3796;BME280;1913;50.660;7.834;2023-02-02T14:08:53;97834.59;;;5.84;100.00
3796;BME280;1913;50.660;7.834;2023-02-02T14:11:23;97839.97;;;5.82;100.00
3796;BME280;1913;50.660;7.834;2023-02-02T14:13:53;97843.69;;;5.80;100.00
3796;BME280;1913;50.660;7.834;2023-02-02T14:19:05;97840.00;;;5.90;100.00
3796;BME280;1913;50.660;7.834;2023-02-02T14:26:47;97854.41;;;5.94;100.00
3796;BME280;1913;50.660;7.834;2023-02-02T14:32:00;97872.19;;;5.99;100.00
3796;BME280;1913;50.660;7.834;2023-02-02T14:34:39;97875.94;;;6.05;100.00
3796;BME280;1913;50.660;7.834;2023-02-02T14:45:37;97868.09;;;5.96;100.00
3796;BME280;1913;50.660;7.834;2023-02-02T14:53:23;97859.97;;;5.99;100.00
3796;BME280;1913;50.660;7.834;2023-02-02T14:56:03;97872.81;;;5.93;100.00
3796;BME280;1913;50.660;7.834;2023-02-02T15:03:53;97879.03;;;6.00;100.00
3796;BME280;1913;50.660;7.834;2023-02-02T15:25:29;97883.94;;;6.03;100.00
3796;BME280;1913;50.660;7.834;2023-02-02T15:28:15;97889.38;;;6.10;100.00
3796;BME280;1913;50.660;7.834;2023-02-02T15:30:44;97892.69;;;6.20;100.00
3796;BME280;1913;50.660;7.834;2023-02-02T15:33:22;97896.88;;;6.13;100.00
3796;BME280;1913;50.660;7.834;2023-02-02T15:35:49;97902.56;;;6.08;100.00
3796;BME280;1913;50.660;7.834;2023-02-02T15:38:17;97905.56;;;6.21;100.00
3796;BME280;1913;50.660;7.834;2023-02-02T15:40:44;97908.47;;;6.18;100.00
3796;BME280;1913;50.660;7.834;2023-02-02T15:43:11;97910.63;;;6.23;100.00
3796;BME280;1913;50.660;7.834;2023-02-02T15:45:55;97921.31;;;6.12;100.00
3796;BME280;1913;50.660;7.834;2023-02-02T15:48:29;97934.56;;;6.18;100.00
3796;BME280;1913;50.660;7.834;2023-02-02T15:51:02;97930.34;;;6.17;100.00
3796;BME280;1913;50.660;7.834;2023-02-02T15:53:52;97936.72;;;6.23;100.00
3796;BME280;1913;50.660;7.834;2023-02-02T15:58:51;97935.75;;;6.24;100.00
3796;BME280;1913;50.660;7.834;2023-02-02T16:01:22;97936.75;;;6.31;100.00
3796;BME280;1913;50.660;7.834;2023-02-02T16:03:54;97932.53;;;6.30;100.00
3796;BME280;1913;50.660;7.834;2023-02-02T16:06:22;97937.75;;;6.30;100.00
3796;BME280;1913;50.660;7.834;2023-02-02T16:08:48;97940.19;;;6.32;100.00
3796;BME280;1913;50.660;7.834;2023-02-02T16:11:17;97940.81;;;6.26;100.00
3796;BME280;1913;50.660;7.834;2023-02-02T16:16:45;97960.56;;;6.28;100.00